createdAt,value
2023-01-08T00:00:36.661Z,95.76
2023-01-08T00:03:45.204Z,95.68
2023-01-08T00:06:47.935Z,96.35
2023-01-08T00:09:50.775Z,96.17
2023-01-08T00:12:56.019Z,96.21
2023-01-08T00:16:03.959Z,95.88
2023-01-08T00:19:06.575Z,96.29
2023-01-08T00:22:12.368Z,96.02
2023-01-08T00:25:16.728Z,95.66
2023-01-08T00:28:21.157Z,95.85
2023-01-08T00:31:23.782Z,95.63
2023-01-08T00:34:28.756Z,95.70
2023-01-08T00:37:34.039Z,95.78
2023-01-08T00:40:40.568Z,95.50
2023-01-08T00:43:43.213Z,95.75
2023-01-08T00:46:45.831Z,95.48
2023-01-08T00:49:48.371Z,95.91
2023-01-08T00:52:50.932Z,96.12
2023-01-08T00:56:00.853Z,95.69
2023-01-08T00:59:06.303Z,95.72
2023-01-08T01:02:12.210Z,95.43
2023-01-08T01:05:15.612Z,96.30
2023-01-08T01:08:18.277Z,96.11
2023-01-08T01:11:25.570Z,95.87
2023-01-08T01:14:29.207Z,95.44
2023-01-08T01:17:31.789Z,95.68
2023-01-08T01:20:37.387Z,95.53
2023-01-08T01:23:40.891Z,95.69
2023-01-08T01:26:43.516Z,95.42
2023-01-08T01:29:46.057Z,94.82
2023-01-08T01:33:05.541Z,95.16
2023-01-08T01:36:09.782Z,95.94
2023-01-08T01:39:12.330Z,95.43
2023-01-08T01:42:36.185Z,95.42
2023-01-08T01:45:38.797Z,95.28
2023-01-08T01:48:41.475Z,95.33
2023-01-08T01:51:48.353Z,95.06
2023-01-08T01:54:52.419Z,95.03
2023-01-08T01:58:10.866Z,95.23
2023-01-08T02:01:14.039Z,95.25
2023-01-08T02:04:16.808Z,95.39
2023-01-08T02:07:47.291Z,95.57
2023-01-08T02:10:56.992Z,95.70
2023-01-08T02:14:16.655Z,96.00
2023-01-08T02:17:53.239Z,95.56
2023-01-08T02:21:29.856Z,96.04
2023-01-08T02:24:38.319Z,95.56
2023-01-08T02:27:44.037Z,95.83
2023-01-08T02:30:47.791Z,95.18
2023-01-08T02:33:50.384Z,96.21
2023-01-08T02:36:54.963Z,95.88
2023-01-08T02:40:11.649Z,95.61
2023-01-08T02:43:26.248Z,95.51
2023-01-08T02:46:32.616Z,95.60
2023-01-08T02:49:39.043Z,96.47
2023-01-08T02:53:03.651Z,96.29
2023-01-08T02:56:13.892Z,96.85
2023-01-08T02:59:17.657Z,97.13
2023-01-08T03:02:20.321Z,96.67
2023-01-08T03:05:26.665Z,96.83
2023-01-08T03:08:29.949Z,96.83
2023-01-08T03:11:41.116Z,96.84
2023-01-08T03:15:08.098Z,96.51
2023-01-08T03:18:14.083Z,96.29
2023-01-08T03:21:18.292Z,96.44
2023-01-08T03:24:24.658Z,96.84
2023-01-08T03:27:32.546Z,96.83
2023-01-08T03:30:36.416Z,96.45
2023-01-08T03:33:39.154Z,96.72
2023-01-08T03:36:45.270Z,97.05
2023-01-08T03:39:57.149Z,96.36
2023-01-08T03:43:00.116Z,96.13
2023-01-08T03:46:05.949Z,95.79
2023-01-08T03:49:09.217Z,95.93
2023-01-08T03:52:25.429Z,96.43
2023-01-08T03:55:30.394Z,96.20
2023-01-08T03:58:36.034Z,95.81
2023-01-08T04:01:38.909Z,96.09
2023-01-08T04:04:41.949Z,96.36
2023-01-08T04:07:46.335Z,96.08
2023-01-08T04:10:51.982Z,96.26
2023-01-08T04:13:54.640Z,95.84
2023-01-08T04:16:57.717Z,96.35
2023-01-08T04:20:00.285Z,96.13
2023-01-08T04:23:02.850Z,95.80
2023-01-08T04:26:08.897Z,95.59
2023-01-08T04:29:12.859Z,96.34
2023-01-08T04:32:18.631Z,96.12
2023-01-08T04:35:21.244Z,96.52
2023-01-08T04:38:23.761Z,96.38
2023-01-08T04:41:26.330Z,96.49
2023-01-08T04:44:28.922Z,96.75
2023-01-08T04:47:33.782Z,96.54
2023-01-08T04:50:36.344Z,96.86
2023-01-08T04:53:41.383Z,96.97
2023-01-08T04:56:43.991Z,97.09
2023-01-08T04:59:46.511Z,96.63
2023-01-08T05:02:49.189Z,96.77
2023-01-08T05:05:51.869Z,96.94
2023-01-08T05:08:54.391Z,96.82
2023-01-08T05:11:57.016Z,97.13
2023-01-08T05:14:59.645Z,97.20
2023-01-08T05:18:05.259Z,97.28
2023-01-08T05:21:07.752Z,96.64
2023-01-08T05:24:10.350Z,97.60
2023-01-08T05:27:12.928Z,97.15
2023-01-08T05:30:16.380Z,97.02
2023-01-08T05:33:19.511Z,96.81
2023-01-08T05:36:22.150Z,96.79
2023-01-08T05:39:24.772Z,96.99
2023-01-08T05:42:27.446Z,97.30
2023-01-08T05:45:29.949Z,97.22
2023-01-08T05:48:37.550Z,97.17
2023-01-08T05:51:40.128Z,97.44
2023-01-08T05:54:42.856Z,97.36
2023-01-08T05:57:45.479Z,97.33
2023-01-08T06:00:48.164Z,97.87
2023-01-08T06:03:50.682Z,96.74
2023-01-08T06:06:53.280Z,97.12
2023-01-08T06:10:04.144Z,97.16
2023-01-08T06:13:10.692Z,97.27
2023-01-08T06:16:13.740Z,97.06
2023-01-08T06:19:21.600Z,97.31
2023-01-08T06:22:24.178Z,97.29
2023-01-08T06:25:28.464Z,97.72
2023-01-08T06:28:31.262Z,97.46
2023-01-08T06:31:36.445Z,97.54
2023-01-08T06:34:39.102Z,97.37
2023-01-08T06:37:41.653Z,97.87
2023-01-08T06:40:44.230Z,96.95
2023-01-08T06:43:49.630Z,97.56
2023-01-08T06:46:52.338Z,97.10
2023-01-08T06:49:54.930Z,97.62
2023-01-08T06:52:57.629Z,97.22
2023-01-08T06:56:00.204Z,97.38
2023-01-08T06:59:02.819Z,97.25
2023-01-08T07:02:05.533Z,97.17
2023-01-08T07:05:08.561Z,97.41
2023-01-08T07:08:18.036Z,97.50
2023-01-08T07:11:20.669Z,96.94
2023-01-08T07:14:23.315Z,97.11
2023-01-08T07:17:25.829Z,97.41
2023-01-08T07:20:28.373Z,96.81
2023-01-08T07:23:31.339Z,96.84
2023-01-08T07:26:34.329Z,97.46
2023-01-08T07:29:36.941Z,96.92
2023-01-08T07:32:42.253Z,96.77
2023-01-08T07:35:55.119Z,96.50
2023-01-08T07:38:57.704Z,96.69
2023-01-08T07:42:00.220Z,96.66
2023-01-08T07:45:02.931Z,96.51
2023-01-08T07:48:06.093Z,96.34
2023-01-08T07:51:09.803Z,96.59
2023-01-08T07:54:12.344Z,96.48
2023-01-08T07:57:15.017Z,96.43
2023-01-08T08:00:17.860Z,95.74
2023-01-08T08:03:20.401Z,96.21
2023-01-08T08:06:22.999Z,95.10
2023-01-08T08:09:25.745Z,95.88
2023-01-08T08:12:28.400Z,95.71
2023-01-08T08:15:31.057Z,95.98
2023-01-08T08:18:33.642Z,95.68
2023-01-08T08:21:36.624Z,96.31
2023-01-08T08:24:39.210Z,96.46
2023-01-08T08:27:43.169Z,96.32
2023-01-08T08:30:45.735Z,96.72
2023-01-08T08:33:48.359Z,95.84
2023-01-08T08:36:51.045Z,95.80
2023-01-08T08:39:53.697Z,95.83
2023-01-08T08:43:00.683Z,96.01
2023-01-08T08:46:03.328Z,95.27
2023-01-08T08:49:05.883Z,95.33
2023-01-08T08:52:08.522Z,95.07
2023-01-08T08:55:15.321Z,95.03
2023-01-08T08:58:18.334Z,95.78
2023-01-08T09:01:26.115Z,95.15
2023-01-08T09:04:34.104Z,93.86
2023-01-08T09:07:36.777Z,92.70
2023-01-08T09:10:42.436Z,91.52
2023-01-08T09:13:45.125Z,90.47
2023-01-08T09:16:47.935Z,89.13
2023-01-08T09:19:52.827Z,89.32
2023-01-08T09:23:01.392Z,88.85
2023-01-08T09:26:05.318Z,87.88
2023-01-08T09:29:08.578Z,86.94
2023-01-08T09:32:11.181Z,87.23
2023-01-08T09:35:13.742Z,87.90
2023-01-08T09:38:16.363Z,88.17
2023-01-08T09:41:21.675Z,88.39
2023-01-08T09:44:28.252Z,87.30
2023-01-08T09:47:39.667Z,85.73
2023-01-08T09:50:42.485Z,85.17
2023-01-08T09:53:48.251Z,85.11
2023-01-08T09:56:51.013Z,84.42
2023-01-08T09:59:59.541Z,82.65
2023-01-08T10:03:02.435Z,81.42
2023-01-08T10:06:13.897Z,81.68
2023-01-08T10:09:19.581Z,81.17
2023-01-08T10:12:30.052Z,78.87
2023-01-08T10:15:32.661Z,79.22
2023-01-08T10:18:35.483Z,78.27
2023-01-08T10:21:40.549Z,79.25
2023-01-08T10:24:43.404Z,77.89
2023-01-08T10:27:54.612Z,76.07
2023-01-08T10:31:07.192Z,74.84
2023-01-08T10:34:19.222Z,75.75
2023-01-08T10:37:30.124Z,75.52
2023-01-08T10:40:44.541Z,75.16
2023-01-08T10:44:03.352Z,73.36
2023-01-08T10:47:06.379Z,73.10
2023-01-08T10:50:20.772Z,72.63
2023-01-08T10:53:26.823Z,73.79
2023-01-08T10:56:32.099Z,72.14
2023-01-08T10:59:36.376Z,71.35
2023-01-08T11:02:40.414Z,72.11
2023-01-08T11:05:46.333Z,71.04
2023-01-08T11:09:00.203Z,69.93
2023-01-08T11:12:02.803Z,71.28
2023-01-08T11:15:26.859Z,70.29
2023-01-08T11:18:29.883Z,70.99
2023-01-08T11:21:33.537Z,68.18
2023-01-08T11:24:38.279Z,69.00
2023-01-08T11:27:45.512Z,67.96
2023-01-08T11:30:53.872Z,67.75
2023-01-08T11:34:07.914Z,69.15
2023-01-08T11:37:35.983Z,68.28
2023-01-08T11:40:50.462Z,67.56
2023-01-08T11:44:05.229Z,67.73
2023-01-08T11:47:54.371Z,66.94
2023-01-08T11:50:59.809Z,66.90
2023-01-08T11:54:14.527Z,67.27
2023-01-08T11:57:19.876Z,65.83
2023-01-08T12:00:43.940Z,65.46
2023-01-08T12:03:52.696Z,64.99
2023-01-08T12:07:01.152Z,65.17
2023-01-08T12:10:27.597Z,64.63
2023-01-08T12:13:47.047Z,64.12
2023-01-08T12:17:06.172Z,66.10
2023-01-08T12:20:30.557Z,65.03
2023-01-08T12:24:07.968Z,64.16
2023-01-08T12:27:40.866Z,63.47
2023-01-08T12:30:53.076Z,62.76
2023-01-08T12:34:00.600Z,63.97
2023-01-08T12:37:16.032Z,63.94
2023-01-08T12:40:28.212Z,63.63
2023-01-08T12:43:35.658Z,63.55
2023-01-08T12:46:42.795Z,65.28
2023-01-08T12:49:56.046Z,63.65
2023-01-08T12:53:13.996Z,62.93
2023-01-08T12:56:33.658Z,62.46
2023-01-08T13:00:04.335Z,62.54
2023-01-08T13:03:15.378Z,62.85
2023-01-08T13:06:19.779Z,62.19
2023-01-08T13:09:25.388Z,62.74
2023-01-08T13:12:39.560Z,63.08
2023-01-08T13:15:42.863Z,63.00
2023-01-08T13:19:25.770Z,63.75
2023-01-08T13:22:34.047Z,63.32
2023-01-08T13:25:38.532Z,63.56
2023-01-08T13:28:45.512Z,63.17
2023-01-08T13:31:48.189Z,63.38
2023-01-08T13:35:17.009Z,63.78
2023-01-08T13:38:22.439Z,64.55
2023-01-08T13:41:29.458Z,64.22
2023-01-08T13:44:40.076Z,64.06
2023-01-08T13:47:48.315Z,64.64
2023-01-08T13:50:51.342Z,64.72
2023-01-08T13:53:54.185Z,64.93
2023-01-08T13:57:04.280Z,64.74
2023-01-08T14:00:09.859Z,64.68
2023-01-08T14:03:37.279Z,65.71
2023-01-08T14:06:39.820Z,65.16
2023-01-08T14:09:42.446Z,64.94
2023-01-08T14:12:48.066Z,65.93
2023-01-08T14:15:54.114Z,66.54
2023-01-08T14:19:00.631Z,66.62
2023-01-08T14:22:03.793Z,67.82
2023-01-08T14:25:07.813Z,67.56
2023-01-08T14:28:17.618Z,66.53
2023-01-08T14:31:31.301Z,66.86
2023-01-08T14:34:38.899Z,67.26
2023-01-08T14:37:44.551Z,67.65
2023-01-08T14:41:11.027Z,67.35
2023-01-08T14:44:15.339Z,67.35
2023-01-08T14:47:20.042Z,67.28
2023-01-08T14:50:34.684Z,67.44
2023-01-08T14:53:48.782Z,66.83
2023-01-08T14:56:54.282Z,64.49
2023-01-08T15:00:02.194Z,63.66
2023-01-08T15:03:05.017Z,63.47
2023-01-08T15:06:07.797Z,63.91
2023-01-08T15:09:22.219Z,64.04
2023-01-08T15:12:27.209Z,63.66
2023-01-08T15:15:31.976Z,63.52
2023-01-08T15:18:45.941Z,64.64
2023-01-08T15:21:52.793Z,65.05
2023-01-08T15:25:02.567Z,65.91
2023-01-08T15:28:15.345Z,66.20
2023-01-08T15:31:40.264Z,66.44
2023-01-08T15:34:44.094Z,66.48
2023-01-08T15:37:49.600Z,66.44
2023-01-08T15:40:53.567Z,66.75
2023-01-08T15:43:59.154Z,66.96
2023-01-08T15:47:04.658Z,66.99
2023-01-08T15:50:07.779Z,66.96
2023-01-08T15:53:15.360Z,65.34
2023-01-08T15:56:17.881Z,66.32
2023-01-08T15:59:20.463Z,66.22
2023-01-08T16:02:23.473Z,64.21
2023-01-08T16:05:28.954Z,64.07
2023-01-08T16:08:34.150Z,63.87
2023-01-08T16:11:36.932Z,63.39
2023-01-08T16:14:39.790Z,62.92
2023-01-08T16:17:44.198Z,64.17
2023-01-08T16:20:46.841Z,65.35
2023-01-08T16:23:49.381Z,66.16
2023-01-08T16:27:03.673Z,66.41
2023-01-08T16:30:08.296Z,67.23
2023-01-08T16:33:11.124Z,68.47
2023-01-08T16:36:13.805Z,68.16
2023-01-08T16:39:18.398Z,68.15
2023-01-08T16:42:21.139Z,67.61
2023-01-08T16:45:24.276Z,68.47
2023-01-08T16:48:26.850Z,67.74
2023-01-08T16:51:32.279Z,67.80
2023-01-08T16:54:35.079Z,67.76
2023-01-08T16:57:37.758Z,68.32
2023-01-08T17:00:40.762Z,68.79
2023-01-08T17:03:46.013Z,68.85
2023-01-08T17:06:51.256Z,68.70
2023-01-08T17:09:53.931Z,69.21
2023-01-08T17:12:56.655Z,69.16
2023-01-08T17:16:10.651Z,68.42
2023-01-08T17:19:13.476Z,67.61
2023-01-08T17:22:16.168Z,66.81
2023-01-08T17:25:21.483Z,66.40
2023-01-08T17:28:30.369Z,67.10
2023-01-08T17:31:39.816Z,67.02
2023-01-08T17:34:42.595Z,68.08
2023-01-08T17:37:45.124Z,68.55
2023-01-08T17:40:48.563Z,69.27
2023-01-08T17:43:59.633Z,70.11
2023-01-08T17:47:02.333Z,70.03
2023-01-08T17:50:05.977Z,70.20
2023-01-08T17:53:08.671Z,70.54
2023-01-08T17:56:11.409Z,70.83
2023-01-08T17:59:16.393Z,70.96
2023-01-08T18:02:22.132Z,70.65
2023-01-08T18:05:24.858Z,71.28
2023-01-08T18:08:27.578Z,71.73
2023-01-08T18:11:30.321Z,71.76
2023-01-08T18:14:36.032Z,71.74
2023-01-08T18:17:39.957Z,71.92
2023-01-08T18:20:42.543Z,72.41
2023-01-08T18:23:47.426Z,72.31
2023-01-08T18:26:50.567Z,72.99
2023-01-08T18:29:54.991Z,72.41
2023-01-08T18:32:57.654Z,72.70
2023-01-08T18:36:03.324Z,73.10
2023-01-08T18:39:07.219Z,73.52
2023-01-08T18:42:28.709Z,74.29
2023-01-08T18:45:35.443Z,75.09
2023-01-08T18:48:38.004Z,74.98
2023-01-08T18:51:43.613Z,74.98
2023-01-08T18:54:48.623Z,74.82
2023-01-08T18:57:52.322Z,74.94
2023-01-08T19:00:55.106Z,75.19
2023-01-08T19:03:57.839Z,75.25
2023-01-08T19:07:00.561Z,75.88
2023-01-08T19:10:03.599Z,76.85
2023-01-08T19:13:06.646Z,77.49
2023-01-08T19:16:13.020Z,77.89
2023-01-08T19:19:17.700Z,78.31
2023-01-08T19:22:26.509Z,78.46
2023-01-08T19:25:29.166Z,78.60
2023-01-08T19:28:31.914Z,78.73
2023-01-08T19:31:34.884Z,79.06
2023-01-08T19:34:37.520Z,79.72
2023-01-08T19:37:40.391Z,79.85
2023-01-08T19:40:43.032Z,79.68
2023-01-08T19:43:45.712Z,79.66
2023-01-08T19:46:50.602Z,80.13
2023-01-08T19:49:53.396Z,80.66
2023-01-08T19:52:56.743Z,80.87
2023-01-08T19:56:03.322Z,81.30
2023-01-08T19:59:06.031Z,81.51
2023-01-08T20:02:10.439Z,82.17
2023-01-08T20:05:15.372Z,82.29
2023-01-08T20:08:18.136Z,81.87
2023-01-08T20:11:22.456Z,81.65
2023-01-08T20:14:30.790Z,82.20
2023-01-08T20:17:33.501Z,82.07
2023-01-08T20:20:36.027Z,82.14
2023-01-08T20:23:39.879Z,82.63
2023-01-08T20:26:44.280Z,82.45
2023-01-08T20:29:47.042Z,82.09
2023-01-08T20:35:53.162Z,82.92
2023-01-08T20:38:58.533Z,82.51
2023-01-08T20:42:04.746Z,82.68
2023-01-08T20:45:08.735Z,82.98
2023-01-08T20:48:17.196Z,82.84
2023-01-08T20:51:23.380Z,82.07
2023-01-08T20:54:26.349Z,82.15
2023-01-08T20:57:29.005Z,81.79
2023-01-08T21:00:31.585Z,81.73
2023-01-08T21:03:35.907Z,81.79
2023-01-08T21:06:39.022Z,82.10
2023-01-08T21:09:44.425Z,81.47
2023-01-08T21:12:47.156Z,80.53
2023-01-08T21:15:52.695Z,79.88
2023-01-08T21:19:03.673Z,79.82
2023-01-08T21:22:08.755Z,78.96
2023-01-08T21:25:12.685Z,78.12
2023-01-08T21:28:15.595Z,77.49
2023-01-08T21:31:21.027Z,77.35
2023-01-08T21:34:23.630Z,77.32
2023-01-08T21:37:26.259Z,76.78
2023-01-08T21:40:28.820Z,76.70
2023-01-08T21:43:49.959Z,76.66
2023-01-08T21:46:52.510Z,76.54
2023-01-08T21:49:55.075Z,76.24
2023-01-08T21:53:16.113Z,76.33
2023-01-08T21:56:18.913Z,76.67
2023-01-08T21:59:21.664Z,75.72
2023-01-08T22:02:24.615Z,75.64
2023-01-08T22:05:28.055Z,75.10
2023-01-08T22:08:32.941Z,75.19
2023-01-08T22:11:35.531Z,74.98
2023-01-08T22:14:40.862Z,74.98
2023-01-08T22:17:48.352Z,74.97
2023-01-08T22:21:00.810Z,75.28
2023-01-08T22:24:03.830Z,75.52
2023-01-08T22:27:08.145Z,75.77
2023-01-08T22:30:11.193Z,76.25
2023-01-08T22:33:13.813Z,76.79
2023-01-08T22:36:16.384Z,77.17
2023-01-08T22:39:19.077Z,77.08
2023-01-08T22:42:25.024Z,77.40
2023-01-08T22:45:27.607Z,77.74
2023-01-08T22:48:30.116Z,77.33
2023-01-08T22:51:33.859Z,76.82
2023-01-08T22:54:39.819Z,76.98
2023-01-08T22:57:42.364Z,76.73
2023-01-08T23:00:45.210Z,77.25
2023-01-08T23:03:56.686Z,77.01
2023-01-08T23:06:59.338Z,76.68
2023-01-08T23:10:01.918Z,76.61
2023-01-08T23:13:04.450Z,76.63
2023-01-08T23:16:08.921Z,76.18
2023-01-08T23:19:11.888Z,76.27
2023-01-08T23:22:14.498Z,76.26
2023-01-08T23:25:17.205Z,76.35
2023-01-08T23:28:19.957Z,75.96
2023-01-08T23:31:27.874Z,76.21
2023-01-08T23:34:32.767Z,76.44
2023-01-08T23:37:35.342Z,76.78
2023-01-08T23:40:41.742Z,76.07
2023-01-08T23:43:46.006Z,75.95
2023-01-08T23:46:48.714Z,75.43
2023-01-08T23:49:53.834Z,75.13
2023-01-08T23:52:56.632Z,75.08
2023-01-08T23:56:02.292Z,74.92
2023-01-08T23:59:07.401Z,75.34
